createdAt,value
2018-04-19T00:00:59.246Z,18.80
2018-04-19T00:01:59.284Z,19.50
2018-04-19T00:02:59.204Z,16.90
2018-04-19T00:03:59.208Z,18.60
2018-04-19T00:04:59.169Z,19.50
2018-04-19T00:05:59.211Z,16.70
2018-04-19T00:06:59.120Z,17.30
2018-04-19T00:07:59.122Z,18.90
2018-04-19T00:08:59.077Z,20.60
2018-04-19T00:09:59.136Z,20.20
2018-04-19T00:10:59.035Z,18.10
2018-04-19T00:11:59.047Z,18.10
2018-04-19T00:12:58.995Z,18.80
2018-04-19T00:13:59.063Z,16.20
2018-04-19T00:14:58.953Z,18.10
2018-04-19T00:15:58.972Z,17.40
2018-04-19T00:16:58.910Z,17.10
2018-04-19T00:17:58.987Z,16.60
2018-04-19T00:18:58.868Z,17.60
2018-04-19T00:19:58.899Z,18.00
2018-04-19T00:20:58.821Z,18.20
2018-04-19T00:21:58.912Z,19.00
2018-04-19T00:22:58.779Z,17.70
2018-04-19T00:23:58.827Z,17.70
2018-04-19T00:24:58.735Z,18.20
2018-04-19T00:25:58.736Z,17.10
2018-04-19T00:26:58.694Z,15.20
2018-04-19T00:27:58.749Z,18.70
2018-04-19T00:28:58.650Z,15.50
2018-04-19T00:29:58.661Z,17.10
2018-04-19T00:30:58.607Z,19.30
2018-04-19T00:31:58.674Z,17.40
2018-04-19T00:32:58.566Z,17.80
2018-04-19T00:33:58.588Z,16.60
2018-04-19T00:34:58.522Z,18.10
2018-04-19T00:35:58.601Z,17.70
2018-04-19T00:36:58.480Z,20.50
2018-04-19T00:37:58.516Z,19.40
2018-04-19T00:38:58.445Z,19.10
2018-04-19T00:39:58.528Z,20.10
2018-04-19T00:40:58.392Z,18.10
2018-04-19T00:41:58.440Z,17.60
2018-04-19T00:42:58.350Z,19.10
2018-04-19T00:43:58.355Z,18.00
2018-04-19T00:44:58.309Z,17.20
2018-04-19T00:45:58.365Z,19.40
2018-04-19T00:46:58.263Z,19.40
2018-04-19T00:47:58.281Z,17.30
2018-04-19T00:48:58.217Z,18.80
2018-04-19T00:49:58.296Z,17.80
2018-04-19T00:50:58.180Z,19.20
2018-04-19T00:51:58.205Z,20.70
2018-04-19T00:52:58.134Z,17.70
2018-04-19T00:53:58.222Z,17.90
2018-04-19T00:54:58.094Z,18.90
2018-04-19T00:55:58.132Z,17.70
2018-04-19T00:56:58.053Z,17.10
2018-04-19T00:57:58.043Z,20.70
2018-04-19T00:58:58.004Z,17.70
2018-04-19T00:59:58.056Z,19.60
2018-04-19T01:00:57.965Z,18.90
2018-04-19T01:01:57.971Z,19.90
2018-04-19T01:02:57.920Z,18.90
2018-04-19T01:03:57.981Z,17.80
2018-04-19T01:04:57.878Z,19.80
2018-04-19T01:05:57.894Z,18.10
2018-04-19T01:06:57.831Z,19.90
2018-04-19T01:07:57.906Z,20.50
2018-04-19T01:08:57.790Z,20.10
2018-04-19T01:09:57.818Z,19.50
2018-04-19T01:10:57.745Z,21.80
2018-04-19T01:11:57.836Z,20.70
2018-04-19T01:13:06.843Z,21.20
2018-04-19T01:13:57.744Z,20.10
2018-04-19T01:14:57.664Z,21.70
2018-04-19T01:15:57.760Z,20.70
2018-04-19T01:16:57.606Z,21.60
2018-04-19T01:17:57.670Z,22.10
2018-04-19T01:18:57.571Z,19.70
2018-04-19T01:19:57.582Z,19.50
2018-04-19T01:20:57.516Z,23.70
2018-04-19T01:21:57.594Z,21.30
2018-04-19T01:22:57.483Z,21.20
2018-04-19T01:23:57.507Z,21.20
2018-04-19T01:24:57.439Z,20.40
2018-04-19T01:25:57.521Z,22.60
2018-04-19T01:26:57.398Z,21.10
2018-04-19T01:27:57.432Z,21.00
2018-04-19T01:28:57.353Z,19.40
2018-04-19T01:29:57.347Z,21.30
2018-04-19T01:30:57.314Z,22.70
2018-04-19T01:31:57.357Z,25.10
2018-04-19T01:32:57.265Z,24.10
2018-04-19T01:33:57.270Z,22.80
2018-04-19T01:34:57.224Z,22.80
2018-04-19T01:35:57.284Z,22.30
2018-04-19T01:36:57.177Z,19.90
2018-04-19T01:37:57.196Z,20.80
2018-04-19T01:38:57.132Z,21.00
2018-04-19T01:39:57.209Z,20.80
2018-04-19T01:40:57.089Z,21.80
2018-04-19T01:41:57.121Z,21.70
2018-04-19T01:42:57.047Z,18.60
2018-04-19T01:43:57.142Z,20.20
2018-04-19T01:44:57.001Z,23.30
2018-04-19T01:45:57.053Z,20.60
2018-04-19T01:46:56.960Z,20.90
2018-04-19T01:47:56.961Z,20.00
2018-04-19T01:48:56.913Z,19.30
2018-04-19T01:49:56.975Z,21.10
2018-04-19T01:50:56.869Z,20.80
2018-04-19T01:51:56.887Z,21.50
2018-04-19T01:52:56.825Z,20.30
2018-04-19T01:53:56.899Z,19.90
2018-04-19T01:54:56.780Z,20.00
2018-04-19T01:55:56.816Z,21.70
2018-04-19T01:56:56.741Z,20.10
2018-04-19T01:57:56.828Z,19.40
2018-04-19T01:58:56.696Z,22.10
2018-04-19T01:59:56.739Z,20.30
2018-04-19T02:00:56.649Z,20.50
2018-04-19T02:01:56.651Z,20.90
2018-04-19T02:02:56.606Z,21.20
2018-04-19T02:03:56.666Z,19.50
2018-04-19T02:04:56.565Z,20.80
2018-04-19T02:05:56.580Z,19.60
2018-04-19T02:06:56.515Z,18.50
2018-04-19T02:07:56.589Z,19.30
2018-04-19T02:08:56.478Z,19.50
2018-04-19T02:09:56.505Z,19.50
2018-04-19T02:10:56.432Z,20.40
2018-04-19T02:11:56.514Z,17.50
2018-04-19T02:12:56.386Z,19.40
2018-04-19T02:13:56.427Z,18.90
2018-04-19T02:14:56.341Z,20.60
2018-04-19T02:15:56.373Z,16.80
2018-04-19T02:16:56.296Z,20.30
2018-04-19T02:17:56.352Z,19.00
2018-04-19T02:18:56.255Z,17.80
2018-04-19T02:19:56.267Z,19.20
2018-04-19T02:20:56.213Z,19.00
2018-04-19T02:21:56.278Z,16.80
2018-04-19T02:22:56.161Z,17.60
2018-04-19T02:23:56.188Z,17.80
2018-04-19T02:24:56.121Z,18.20
2018-04-19T02:25:56.202Z,18.40
2018-04-19T02:26:56.071Z,16.70
2018-04-19T02:27:56.116Z,19.10
2018-04-19T02:28:56.028Z,18.40
2018-04-19T02:29:56.027Z,16.50
2018-04-19T02:30:55.985Z,16.80
2018-04-19T02:31:56.040Z,15.50
2018-04-19T02:32:55.943Z,20.30
2018-04-19T02:33:55.951Z,19.10
2018-04-19T02:34:55.895Z,15.90
2018-04-19T02:35:55.965Z,17.40
2018-04-19T02:36:55.851Z,17.80
2018-04-19T02:37:55.875Z,18.00
2018-04-19T02:38:55.806Z,17.10
2018-04-19T02:39:55.888Z,16.40
2018-04-19T02:40:55.767Z,19.60
2018-04-19T02:41:55.814Z,18.30
2018-04-19T02:42:55.715Z,15.70
2018-04-19T02:43:55.715Z,18.20
2018-04-19T02:44:55.677Z,15.90
2018-04-19T02:45:55.725Z,16.10
2018-04-19T02:46:55.630Z,16.60
2018-04-19T02:47:55.638Z,18.70
2018-04-19T02:48:55.581Z,16.00
2018-04-19T02:49:55.651Z,17.00
2018-04-19T02:50:55.538Z,18.10
2018-04-19T02:51:55.565Z,15.80
2018-04-19T02:52:55.493Z,17.30
2018-04-19T02:53:55.573Z,15.30
2018-04-19T02:54:55.446Z,14.80
2018-04-19T02:55:55.489Z,15.90
2018-04-19T02:56:55.402Z,17.80
2018-04-19T02:57:55.400Z,16.60
2018-04-19T02:58:55.359Z,16.00
2018-04-19T02:59:55.416Z,16.80
2018-04-19T03:00:55.313Z,14.40
2018-04-19T03:01:55.327Z,16.00
2018-04-19T03:02:55.268Z,15.60
2018-04-19T03:03:55.342Z,15.80
2018-04-19T03:04:55.227Z,14.80
2018-04-19T03:05:55.257Z,15.50
2018-04-19T03:06:55.178Z,16.00
2018-04-19T03:07:55.266Z,14.90
2018-04-19T03:08:55.133Z,14.20
2018-04-19T03:09:55.179Z,15.00
2018-04-19T03:10:55.089Z,15.60
2018-04-19T03:11:55.090Z,14.20
2018-04-19T03:12:55.043Z,13.80
2018-04-19T03:13:55.104Z,14.80
2018-04-19T03:14:55.001Z,15.10
2018-04-19T03:15:55.016Z,13.80
2018-04-19T03:16:54.951Z,15.70
2018-04-19T03:17:55.031Z,17.00
2018-04-19T03:18:54.906Z,14.50
2018-04-19T03:19:54.942Z,13.80
2018-04-19T03:20:54.869Z,15.00
2018-04-19T03:21:54.854Z,15.20
2018-04-19T03:22:54.817Z,13.70
2018-04-19T03:23:54.867Z,14.30
2018-04-19T03:24:54.770Z,14.00
2018-04-19T03:25:54.781Z,16.40
2018-04-19T03:26:54.729Z,14.10
2018-04-19T03:27:54.793Z,15.40
2018-04-19T03:28:54.686Z,13.10
2018-04-19T03:29:54.706Z,13.70
2018-04-19T03:30:54.645Z,16.40
2018-04-19T03:31:54.719Z,15.50
2018-04-19T03:32:54.596Z,15.20
2018-04-19T03:33:54.630Z,13.80
2018-04-19T03:34:54.547Z,14.10
2018-04-19T03:35:54.543Z,14.70
2018-04-19T03:36:54.502Z,16.90
2018-04-19T03:37:54.559Z,14.40
2018-04-19T03:38:54.455Z,13.10
2018-04-19T03:39:54.468Z,13.30
2018-04-19T03:40:54.412Z,15.30
2018-04-19T03:41:54.487Z,14.50
2018-04-19T03:42:54.367Z,12.70
2018-04-19T03:43:54.392Z,12.80
2018-04-19T03:44:54.320Z,14.00
2018-04-19T03:45:54.409Z,13.80
2018-04-19T03:46:54.274Z,12.80
2018-04-19T03:47:54.317Z,12.50
2018-04-19T03:48:54.229Z,13.60
2018-04-19T03:49:54.233Z,12.80
2018-04-19T03:50:54.188Z,12.80
2018-04-19T03:51:54.243Z,13.40
2018-04-19T03:52:54.134Z,16.80
2018-04-19T03:53:54.190Z,15.10
2018-04-19T03:54:54.092Z,12.00
2018-04-19T03:55:54.170Z,13.70
2018-04-19T03:56:54.045Z,13.20
2018-04-19T03:57:54.080Z,12.10
2018-04-19T03:58:54.003Z,13.00
2018-04-19T03:59:53.993Z,14.40
2018-04-19T04:00:53.954Z,13.80
2018-04-19T04:01:54.023Z,13.30
2018-04-19T04:02:53.913Z,12.60
2018-04-19T04:03:53.923Z,15.10
2018-04-19T04:04:53.863Z,14.20
2018-04-19T04:05:53.932Z,13.60
2018-04-19T04:06:53.818Z,13.10
2018-04-19T04:07:53.847Z,12.10
2018-04-19T04:08:53.804Z,12.00
2018-04-19T04:09:53.863Z,13.20
2018-04-19T04:10:53.727Z,14.00
2018-04-19T04:11:53.774Z,12.10
2018-04-19T04:12:53.681Z,13.40
2018-04-19T04:13:53.685Z,12.30
2018-04-19T04:14:53.636Z,12.80
2018-04-19T04:15:53.698Z,13.80
2018-04-19T04:16:53.589Z,13.70
2018-04-19T04:17:53.611Z,12.90
2018-04-19T04:18:53.547Z,12.90
2018-04-19T04:19:53.623Z,13.90
2018-04-19T04:20:53.504Z,12.00
2018-04-19T04:21:53.535Z,11.60
2018-04-19T04:22:53.453Z,12.80
2018-04-19T04:23:53.448Z,12.20
2018-04-19T04:24:53.406Z,15.60
2018-04-19T04:25:53.462Z,13.90
2018-04-19T04:26:53.365Z,13.50
2018-04-19T04:27:53.375Z,11.80
2018-04-19T04:28:53.319Z,11.40
2018-04-19T04:29:53.387Z,14.60
2018-04-19T04:30:53.268Z,14.70
2018-04-19T04:31:53.299Z,14.10
2018-04-19T04:32:53.223Z,14.90
2018-04-19T04:33:53.313Z,12.70
2018-04-19T04:34:53.177Z,18.80
2018-04-19T04:35:53.223Z,14.30
2018-04-19T04:36:53.132Z,12.70
2018-04-19T04:37:53.136Z,11.50
2018-04-19T04:38:53.084Z,14.80
2018-04-19T04:39:53.149Z,14.30
2018-04-19T04:40:53.045Z,13.80
2018-04-19T04:41:53.063Z,14.40
2018-04-19T04:42:52.994Z,13.60
2018-04-19T04:43:53.076Z,14.90
2018-04-19T04:44:52.946Z,14.80
2018-04-19T04:45:52.986Z,14.80
2018-04-19T04:46:52.903Z,17.60
2018-04-19T04:47:52.950Z,16.50
2018-04-19T04:48:52.854Z,16.80
2018-04-19T04:49:52.912Z,16.60
2018-04-19T04:50:52.814Z,14.50
2018-04-19T04:51:52.837Z,15.50
2018-04-19T04:52:52.765Z,14.90
2018-04-19T04:53:52.840Z,14.50
2018-04-19T04:54:52.714Z,15.00
2018-04-19T04:55:52.750Z,14.00
2018-04-19T04:56:52.669Z,16.10
2018-04-19T04:57:52.665Z,16.80
2018-04-19T04:58:52.625Z,17.50
2018-04-19T04:59:52.679Z,14.50
2018-04-19T05:00:52.579Z,17.80
2018-04-19T05:01:52.587Z,14.60
2018-04-19T05:02:52.531Z,14.20
2018-04-19T05:03:52.601Z,15.80
2018-04-19T05:04:52.484Z,16.30
2018-04-19T05:05:52.512Z,16.60
2018-04-19T05:06:52.443Z,16.50
2018-04-19T05:07:52.527Z,15.70
2018-04-19T05:08:52.392Z,13.90
2018-04-19T05:09:52.438Z,12.50
2018-04-19T05:10:52.346Z,14.50
2018-04-19T05:11:52.389Z,13.70
2018-04-19T05:12:52.303Z,13.90
2018-04-19T05:13:52.416Z,14.60
2018-04-19T05:14:52.256Z,12.10
2018-04-19T05:15:52.275Z,13.90
2018-04-19T05:16:52.211Z,15.00
2018-04-19T05:17:52.291Z,14.50
2018-04-19T05:18:52.159Z,11.80
2018-04-19T05:19:52.229Z,13.40
2018-04-19T05:20:52.115Z,15.20
2018-04-19T05:21:52.114Z,15.10
2018-04-19T05:22:52.078Z,14.30
2018-04-19T05:23:52.127Z,11.00
2018-04-19T05:24:52.029Z,13.40
2018-04-19T05:25:52.043Z,10.30
2018-04-19T05:26:51.980Z,11.90
2018-04-19T05:27:52.055Z,9.80
2018-04-19T05:28:51.932Z,9.70
2018-04-19T05:29:51.964Z,11.30
2018-04-19T05:30:51.886Z,11.70
2018-04-19T05:31:51.876Z,10.70
2018-04-19T05:32:51.840Z,12.30
2018-04-19T05:33:51.891Z,11.90
2018-04-19T05:34:51.793Z,11.00
2018-04-19T05:35:51.800Z,9.80
2018-04-19T05:36:51.747Z,11.10
2018-04-19T05:37:51.815Z,9.00
2018-04-19T05:38:51.703Z,12.30
2018-04-19T05:39:51.729Z,10.20
2018-04-19T05:40:51.663Z,8.00
2018-04-19T05:41:51.742Z,9.90
2018-04-19T05:42:51.607Z,11.40
2018-04-19T05:43:51.653Z,8.90
2018-04-19T05:44:51.563Z,7.50
2018-04-19T05:45:51.566Z,10.00
2018-04-19T05:46:51.520Z,10.10
2018-04-19T05:47:51.581Z,8.70
2018-04-19T05:48:51.473Z,10.50
2018-04-19T05:49:51.493Z,9.00
2018-04-19T05:50:51.429Z,8.20
2018-04-19T05:51:51.506Z,9.00
2018-04-19T05:52:51.382Z,10.50
2018-04-19T05:53:51.419Z,9.20
2018-04-19T05:54:51.341Z,9.60
2018-04-19T05:55:51.328Z,11.30
2018-04-19T05:56:51.292Z,9.60
2018-04-19T05:57:51.343Z,9.30
2018-04-19T05:58:51.253Z,8.60
2018-04-19T05:59:51.254Z,8.30
2018-04-19T06:00:51.202Z,7.80
2018-04-19T06:01:51.268Z,7.10
2018-04-19T06:02:51.158Z,8.50
2018-04-19T06:03:51.180Z,7.90
2018-04-19T06:04:51.114Z,9.60
2018-04-19T06:05:51.192Z,8.40
2018-04-19T06:06:51.068Z,8.70
2018-04-19T06:07:51.115Z,7.10
2018-04-19T06:08:51.025Z,8.00
2018-04-19T06:09:51.017Z,8.40
2018-04-19T06:10:50.980Z,7.40
2018-04-19T06:11:51.029Z,8.20
2018-04-19T06:12:50.941Z,9.90
2018-04-19T06:13:50.941Z,7.50
2018-04-19T06:14:50.895Z,9.50
2018-04-19T06:15:50.960Z,8.20
2018-04-19T06:16:50.848Z,10.20
2018-04-19T06:17:50.869Z,7.50
2018-04-19T06:18:50.807Z,9.90
2018-04-19T06:19:50.880Z,9.40
2018-04-19T06:20:50.765Z,6.50
2018-04-19T06:21:50.798Z,7.60
2018-04-19T06:22:50.718Z,8.10
2018-04-19T06:23:50.814Z,7.20
2018-04-19T06:24:50.682Z,5.90
2018-04-19T06:25:50.726Z,8.70
2018-04-19T06:26:50.631Z,9.30
2018-04-19T06:27:50.645Z,7.90
2018-04-19T06:28:50.592Z,8.10
2018-04-19T06:29:50.655Z,8.10
2018-04-19T06:30:50.561Z,7.40
2018-04-19T06:31:50.562Z,7.00
2018-04-19T06:32:50.499Z,7.70
2018-04-19T06:33:50.580Z,10.90
2018-04-19T06:34:50.456Z,8.80
2018-04-19T06:35:50.488Z,8.90
2018-04-19T06:36:50.414Z,6.60
2018-04-19T06:37:50.503Z,7.00
2018-04-19T06:38:50.369Z,10.80
2018-04-19T06:39:50.412Z,7.60
2018-04-19T06:40:50.329Z,8.30
2018-04-19T06:41:50.324Z,6.20
2018-04-19T06:42:50.286Z,6.10
2018-04-19T06:43:50.338Z,7.40
2018-04-19T06:44:50.242Z,8.40
2018-04-19T06:45:51.221Z,9.80
2018-04-19T06:46:50.201Z,8.00
2018-04-19T06:47:50.272Z,7.90
2018-04-19T06:48:50.155Z,8.40
2018-04-19T06:49:50.143Z,9.30
2018-04-19T06:50:50.117Z,9.40
2018-04-19T06:51:50.187Z,7.10
2018-04-19T06:52:50.079Z,7.60
2018-04-19T06:53:50.098Z,7.30
2018-04-19T06:54:50.029Z,7.90
2018-04-19T06:55:50.114Z,10.10
2018-04-19T06:56:49.989Z,10.10
2018-04-19T06:57:50.023Z,8.10
2018-04-19T06:58:49.946Z,8.10
2018-04-19T06:59:50.039Z,7.20
2018-04-19T07:00:49.902Z,8.00
2018-04-19T07:01:49.891Z,6.70
2018-04-19T07:02:49.864Z,8.80
2018-04-19T07:03:49.861Z,8.70
2018-04-19T07:04:49.820Z,9.50
2018-04-19T07:05:49.879Z,8.10
2018-04-19T07:06:49.778Z,6.70
2018-04-19T07:07:49.786Z,9.20
2018-04-19T07:08:49.736Z,6.90
2018-04-19T07:09:49.800Z,8.90
2018-04-19T07:10:49.701Z,9.60
2018-04-19T07:11:49.711Z,6.80
2018-04-19T07:12:49.657Z,8.20
2018-04-19T07:13:49.725Z,5.40
2018-04-19T07:14:49.616Z,8.60
2018-04-19T07:15:49.637Z,7.10
2018-04-19T07:16:49.573Z,6.80
2018-04-19T07:17:49.652Z,6.90
2018-04-19T07:18:49.532Z,5.70
2018-04-19T07:19:49.564Z,6.40
2018-04-19T07:20:49.489Z,7.60
2018-04-19T07:21:49.580Z,6.90
2018-04-19T07:22:49.448Z,8.30
2018-04-19T07:23:49.489Z,6.40
2018-04-19T07:24:49.407Z,6.90
2018-04-19T07:25:49.550Z,7.30
2018-04-19T07:26:49.366Z,8.30
2018-04-19T07:27:49.415Z,6.30
2018-04-19T07:28:49.329Z,7.20
2018-04-19T07:29:49.326Z,8.80
2018-04-19T07:30:49.287Z,7.50
2018-04-19T07:31:49.340Z,6.20
2018-04-19T07:32:49.247Z,9.70
2018-04-19T07:33:49.252Z,5.60
2018-04-19T07:34:49.205Z,8.80
2018-04-19T07:35:49.267Z,7.00
2018-04-19T07:36:49.166Z,8.40
2018-04-19T07:37:49.187Z,8.30
2018-04-19T07:38:49.126Z,6.90
2018-04-19T07:39:49.192Z,6.60
2018-04-19T07:40:49.088Z,6.70
2018-04-19T07:41:49.103Z,8.10
2018-04-19T07:42:49.049Z,5.30
2018-04-19T07:43:49.118Z,5.90
2018-04-19T07:44:49.008Z,7.90
2018-04-19T07:45:49.029Z,7.60
2018-04-19T07:46:48.969Z,7.70
2018-04-19T07:47:49.043Z,6.80
2018-04-19T07:48:48.925Z,7.50
2018-04-19T07:49:48.954Z,7.80
2018-04-19T07:50:48.889Z,6.80
2018-04-19T07:51:48.969Z,7.20
2018-04-19T07:52:48.847Z,7.20
2018-04-19T07:53:48.883Z,6.60
2018-04-19T07:54:48.811Z,6.70
2018-04-19T07:55:48.893Z,9.30
2018-04-19T07:56:48.769Z,7.60
2018-04-19T07:57:48.806Z,6.90
2018-04-19T07:58:48.732Z,7.60
2018-04-19T07:59:48.820Z,5.30
2018-04-19T08:00:48.691Z,6.80
2018-04-19T08:01:48.735Z,8.60
2018-04-19T08:02:48.653Z,6.30
2018-04-19T08:03:48.647Z,8.00
2018-04-19T08:04:48.613Z,9.90
2018-04-19T08:05:48.659Z,7.60
2018-04-19T08:06:48.578Z,7.10
2018-04-19T08:07:48.571Z,7.60
2018-04-19T08:08:48.540Z,7.00
2018-04-19T08:09:48.585Z,6.20
2018-04-19T08:10:48.498Z,8.10
2018-04-19T08:11:48.497Z,6.30
2018-04-19T08:12:48.463Z,9.10
2018-04-19T08:13:48.512Z,6.00
2018-04-19T08:14:48.423Z,6.80
2018-04-19T08:15:48.422Z,9.00
2018-04-19T08:16:48.383Z,9.30
2018-04-19T08:17:48.439Z,8.10
2018-04-19T08:18:48.402Z,9.30
2018-04-19T08:19:48.349Z,7.90
2018-04-19T08:20:48.310Z,8.60
2018-04-19T08:21:48.361Z,10.70
2018-04-19T08:22:48.271Z,11.10
2018-04-19T08:23:48.273Z,7.50
2018-04-19T08:24:48.236Z,8.60
2018-04-19T08:25:48.288Z,8.40
2018-04-19T08:26:48.200Z,10.20
2018-04-19T08:27:48.199Z,10.10
2018-04-19T08:28:48.159Z,8.20
2018-04-19T08:29:48.213Z,12.00
2018-04-19T08:30:48.122Z,9.10
2018-04-19T08:31:48.125Z,8.50
2018-04-19T08:32:48.086Z,7.00
2018-04-19T08:33:48.138Z,7.90
2018-04-19T08:34:48.053Z,7.90
2018-04-19T08:35:48.049Z,10.40
2018-04-19T08:36:48.011Z,6.70
2018-04-19T08:37:48.065Z,6.50
2018-04-19T08:38:47.976Z,8.50
2018-04-19T08:39:47.975Z,9.70
2018-04-19T08:40:47.937Z,7.80
2018-04-19T08:41:47.989Z,6.80
2018-04-19T08:42:47.901Z,7.50
2018-04-19T08:43:47.902Z,7.40
2018-04-19T08:44:47.865Z,9.80
2018-04-19T08:45:47.918Z,8.10
2018-04-19T08:46:47.829Z,9.60
2018-04-19T08:47:47.828Z,6.70
2018-04-19T08:48:47.794Z,6.60
2018-04-19T08:49:47.842Z,8.20
2018-04-19T08:50:47.755Z,7.00
2018-04-19T08:51:47.754Z,9.80
2018-04-19T08:52:47.742Z,10.10
2018-04-19T08:53:47.767Z,9.20
2018-04-19T08:54:47.683Z,12.70
2018-04-19T08:55:47.780Z,10.00
2018-04-19T08:56:47.648Z,11.60
2018-04-19T08:57:47.695Z,9.70
2018-04-19T08:58:47.614Z,10.90
2018-04-19T08:59:47.705Z,10.40
2018-04-19T09:00:47.575Z,9.10
2018-04-19T09:01:47.618Z,8.70
2018-04-19T09:02:47.559Z,8.50
2018-04-19T09:03:47.634Z,8.50
2018-04-19T09:04:47.506Z,9.40
2018-04-19T09:05:47.542Z,9.00
2018-04-19T09:06:47.471Z,8.50
2018-04-19T09:07:47.558Z,9.90
2018-04-19T09:08:47.440Z,11.20
2018-04-19T09:09:47.469Z,11.40
2018-04-19T09:10:47.404Z,7.80
2018-04-19T09:11:47.483Z,8.80
2018-04-19T09:12:47.366Z,10.20
2018-04-19T09:13:47.396Z,9.20
2018-04-19T09:14:47.332Z,9.40
2018-04-19T09:15:47.409Z,10.10
2018-04-19T09:16:47.299Z,8.20
2018-04-19T09:17:47.322Z,8.40
2018-04-19T09:18:47.264Z,10.50
2018-04-19T09:19:47.341Z,9.00
2018-04-19T09:20:47.229Z,10.00
2018-04-19T09:21:47.275Z,10.10
2018-04-19T09:22:47.198Z,7.30
2018-04-19T09:23:47.261Z,8.00
2018-04-19T09:24:47.162Z,8.80
2018-04-19T09:25:47.176Z,8.10
2018-04-19T09:26:47.182Z,9.00
2018-04-19T09:27:47.188Z,8.90
2018-04-19T09:28:47.095Z,8.10
2018-04-19T09:29:47.201Z,9.70
2018-04-19T09:30:47.056Z,9.80
2018-04-19T09:31:47.112Z,8.90
2018-04-19T09:32:47.042Z,9.90
2018-04-19T09:33:47.127Z,11.20
2018-04-19T09:34:46.999Z,7.90
2018-04-19T09:35:47.038Z,7.50
2018-04-19T09:36:46.964Z,8.00
2018-04-19T09:37:47.057Z,8.30
2018-04-19T09:38:46.933Z,7.80
2018-04-19T09:39:46.963Z,9.70
2018-04-19T09:40:46.904Z,12.40
2018-04-19T09:41:46.983Z,6.50
2018-04-19T09:42:46.870Z,6.20
2018-04-19T09:43:46.891Z,7.40
2018-04-19T09:44:46.840Z,8.00
2018-04-19T09:45:46.902Z,7.10
2018-04-19T09:46:46.808Z,7.00
2018-04-19T09:47:46.815Z,7.00
2018-04-19T09:48:46.777Z,9.90
2018-04-19T09:49:46.829Z,8.30
2018-04-19T09:50:46.755Z,8.30
2018-04-19T09:51:46.844Z,8.20
2018-04-19T09:52:46.717Z,7.70
2018-04-19T09:53:46.808Z,6.10
2018-04-19T09:54:46.692Z,10.40
2018-04-19T09:55:46.769Z,9.00
2018-04-19T09:56:46.661Z,9.00
2018-04-19T09:57:46.679Z,8.10
2018-04-19T09:58:46.630Z,8.30
2018-04-19T09:59:46.696Z,7.00
2018-04-19T10:00:46.599Z,8.80
2018-04-19T10:01:46.605Z,7.70
2018-04-19T10:02:46.573Z,8.00
2018-04-19T10:03:46.620Z,9.30
2018-04-19T10:04:46.541Z,7.80
2018-04-19T10:05:46.636Z,9.00
2018-04-19T10:06:46.514Z,10.80
2018-04-19T10:07:46.548Z,10.20
2018-04-19T10:08:46.488Z,9.40
2018-04-19T10:09:46.558Z,13.60
2018-04-19T10:10:46.457Z,9.80
2018-04-19T10:11:46.474Z,10.00
2018-04-19T10:12:46.433Z,7.90
2018-04-19T10:13:46.492Z,9.60
2018-04-19T10:14:46.401Z,7.90
2018-04-19T10:15:46.502Z,8.20
2018-04-19T10:16:46.376Z,8.00
2018-04-19T10:17:46.416Z,9.10
2018-04-19T10:18:46.353Z,8.60
2018-04-19T10:19:46.431Z,7.70
2018-04-19T10:20:46.324Z,7.00
2018-04-19T10:21:46.341Z,7.70
2018-04-19T10:22:46.303Z,7.10
2018-04-19T10:23:46.360Z,7.30
2018-04-19T10:24:46.272Z,7.00
2018-04-19T10:25:46.371Z,8.80
2018-04-19T10:26:46.244Z,7.70
2018-04-19T10:27:46.277Z,7.40
2018-04-19T10:28:46.220Z,6.10
2018-04-19T10:29:46.291Z,7.30
2018-04-19T10:30:46.199Z,10.30
2018-04-19T10:31:46.207Z,7.90
2018-04-19T10:32:46.168Z,8.70
2018-04-19T10:33:46.233Z,11.10
2018-04-19T10:34:46.143Z,10.80
2018-04-19T10:35:46.237Z,7.90
2018-04-19T10:36:46.118Z,8.80
2018-04-19T10:37:46.145Z,7.40
2018-04-19T10:38:46.096Z,8.40
2018-04-19T10:39:46.159Z,7.30
2018-04-19T10:40:46.067Z,8.40
2018-04-19T10:41:46.070Z,6.40
2018-04-19T10:42:46.044Z,7.50
2018-04-19T10:43:46.085Z,7.80
2018-04-19T10:44:46.018Z,6.90
2018-04-19T10:45:46.098Z,8.50
2018-04-19T10:46:45.994Z,8.00
2018-04-19T10:47:46.008Z,9.70
2018-04-19T10:48:45.968Z,7.70
2018-04-19T10:49:46.021Z,6.10
2018-04-19T10:50:45.949Z,10.20
2018-04-19T10:51:46.043Z,7.10
2018-04-19T10:52:45.920Z,8.10
2018-04-19T10:53:45.950Z,8.70
2018-04-19T10:54:45.897Z,9.30
2018-04-19T10:55:45.961Z,9.50
2018-04-19T10:56:45.876Z,7.30
2018-04-19T10:57:45.976Z,8.00
2018-04-19T10:58:45.852Z,9.10
2018-04-19T10:59:45.889Z,9.20
2018-04-19T11:00:45.826Z,8.30
2018-04-19T11:01:45.903Z,6.50
2018-04-19T11:02:45.807Z,7.10
2018-04-19T11:03:45.814Z,6.40
2018-04-19T11:04:45.780Z,9.90
2018-04-19T11:05:45.826Z,9.30
2018-04-19T11:06:45.758Z,11.70
2018-04-19T11:07:45.841Z,7.50
2018-04-19T11:08:45.737Z,9.70
2018-04-19T11:09:45.751Z,7.40
2018-04-19T11:10:45.712Z,5.90
2018-04-19T11:11:45.767Z,7.80
2018-04-19T11:12:45.689Z,7.60
2018-04-19T11:13:45.778Z,7.60
2018-04-19T11:14:45.669Z,8.20
2018-04-19T11:15:45.690Z,7.80
2018-04-19T11:16:45.645Z,8.90
2018-04-19T11:17:45.705Z,7.70
2018-04-19T11:18:45.625Z,7.60
2018-04-19T11:19:45.641Z,9.70
2018-04-19T11:20:45.600Z,6.60
2018-04-19T11:21:45.632Z,7.90
2018-04-19T11:22:45.580Z,7.50
2018-04-19T11:23:45.650Z,6.70
2018-04-19T11:24:45.556Z,10.40
2018-04-19T11:25:45.560Z,9.60
2018-04-19T11:26:45.535Z,10.30
2018-04-19T11:27:45.573Z,7.90
2018-04-19T11:28:45.514Z,8.80
2018-04-19T11:29:45.580Z,10.50
2018-04-19T11:30:45.492Z,7.70
2018-04-19T11:31:45.498Z,8.90
2018-04-19T11:32:45.471Z,6.80
2018-04-19T11:33:45.513Z,7.60
2018-04-19T11:34:45.448Z,8.90
2018-04-19T11:35:45.532Z,8.00
2018-04-19T11:36:45.426Z,6.20
2018-04-19T11:37:45.438Z,7.20
2018-04-19T11:38:45.441Z,5.70
2018-04-19T11:39:45.451Z,8.90
2018-04-19T11:40:45.387Z,7.50
2018-04-19T11:41:45.469Z,7.40
2018-04-19T11:42:45.365Z,7.30
2018-04-19T11:43:45.376Z,5.80
2018-04-19T11:44:45.345Z,7.60
2018-04-19T11:45:45.391Z,6.50
2018-04-19T11:46:45.325Z,6.70
2018-04-19T11:47:45.406Z,6.30
2018-04-19T11:48:45.301Z,7.80
2018-04-19T11:49:45.315Z,6.00
2018-04-19T11:50:45.283Z,6.00
2018-04-19T11:51:45.329Z,6.80
2018-04-19T11:52:45.267Z,6.00
2018-04-19T11:53:45.346Z,6.60
2018-04-19T11:54:45.249Z,9.10
2018-04-19T11:55:45.258Z,6.00
2018-04-19T11:56:45.228Z,9.40
2018-04-19T11:57:45.272Z,6.40
2018-04-19T11:58:45.223Z,6.60
2018-04-19T11:59:45.281Z,6.40
2018-04-19T12:00:45.188Z,8.40
2018-04-19T12:01:45.203Z,7.30
2018-04-19T12:02:45.167Z,6.00
2018-04-19T12:03:45.209Z,8.10
2018-04-19T12:04:45.147Z,6.50
2018-04-19T12:05:45.224Z,6.90
2018-04-19T12:06:45.138Z,8.70
2018-04-19T12:07:45.136Z,6.90
2018-04-19T12:08:45.113Z,11.40
2018-04-19T12:09:45.151Z,10.70
2018-04-19T12:10:45.095Z,10.50
2018-04-19T12:11:45.165Z,12.20
2018-04-19T12:12:45.075Z,8.70
2018-04-19T12:13:45.084Z,8.80
2018-04-19T12:14:45.056Z,7.30
2018-04-19T12:15:45.091Z,8.80
2018-04-19T12:16:45.038Z,8.00
2018-04-19T12:17:45.105Z,5.60
2018-04-19T12:18:45.019Z,8.60
2018-04-19T12:19:45.121Z,8.40
2018-04-19T12:20:44.997Z,7.60
2018-04-19T12:21:45.033Z,5.30
2018-04-19T12:22:44.996Z,6.80
2018-04-19T12:23:45.045Z,5.00
2018-04-19T12:24:44.966Z,6.00
2018-04-19T12:25:45.060Z,7.40
2018-04-19T12:26:44.944Z,7.00
2018-04-19T12:27:44.971Z,5.10
2018-04-19T12:28:44.931Z,6.00
2018-04-19T12:29:44.988Z,4.70
2018-04-19T12:30:44.910Z,6.80
2018-04-19T12:31:45.000Z,9.50
2018-04-19T12:32:44.891Z,6.10
2018-04-19T12:33:44.911Z,6.10
2018-04-19T12:34:44.874Z,5.70
2018-04-19T12:35:44.927Z,8.40
2018-04-19T12:36:44.857Z,8.50
2018-04-19T12:37:44.939Z,7.80
2018-04-19T12:38:44.839Z,6.30
2018-04-19T12:39:44.847Z,6.20
2018-04-19T12:40:44.822Z,5.20
2018-04-19T12:41:44.868Z,6.20
2018-04-19T12:42:44.810Z,7.50
2018-04-19T12:43:44.869Z,5.30
2018-04-19T12:44:44.789Z,5.80
2018-04-19T12:45:44.894Z,6.90
2018-04-19T12:46:44.770Z,3.40
2018-04-19T12:47:44.807Z,5.60
2018-04-19T12:48:44.756Z,7.40
2018-04-19T12:49:44.821Z,4.70
2018-04-19T12:50:44.741Z,7.40
2018-04-19T12:51:44.837Z,3.40
2018-04-19T12:52:44.741Z,2.80
2018-04-19T12:53:44.749Z,5.40
2018-04-19T12:54:44.703Z,3.40
2018-04-19T12:55:44.760Z,5.30
2018-04-19T12:56:44.696Z,4.00
2018-04-19T12:57:44.776Z,4.50
2018-04-19T12:58:44.671Z,9.10
2018-04-19T12:59:44.689Z,5.30
2018-04-19T13:00:44.654Z,9.90
2018-04-19T13:01:44.700Z,5.80
2018-04-19T13:02:44.640Z,4.50
2018-04-19T13:03:44.715Z,5.70
2018-04-19T13:04:44.620Z,5.90
2018-04-19T13:05:44.628Z,4.40